Haines Junction, Canada
Current Conditions -  °F | °C
As of 1:00 PM on Friday 28 Nov 2014 (Local Time) from CYDB Reporting Station
Ice Pellets Ice Pellets  
Wind Chill: -15°   Ceiling: 23000
Heat Index: -15°   Visibility: 30mi
Dew Point: -20°   Wind: 2mph
Humidity: 77%   Direction: NA
Pressure: 30.07"   Gusts: NA
Location:  60.75°N, 137.51°W
Report Text: CYDB 282100Z VRB02KT 30SM IC SCT010 BKN230 M26/M29 A3007 RMK ST3CI2 SLP280
Loading
Personal Weather Stations






























Interactive Weather Map New forecast layout! Learn more

10-Day Weather Forecast

Advertisements
Track Severe Weather on mobile